createdAt,value
2017-10-12T00:00:03.728Z,10.20
2017-10-12T00:02:30.133Z,10.20
2017-10-12T00:04:56.537Z,10.20
2017-10-12T00:07:23.671Z,10.20
2017-10-12T00:09:50.868Z,10.20
2017-10-12T00:12:18.339Z,10.20
2017-10-12T00:14:44.707Z,10.10
2017-10-12T00:17:11.119Z,10.10
2017-10-12T00:19:37.490Z,10.20
2017-10-12T00:22:03.826Z,10.00
2017-10-12T00:24:30.251Z,9.90
2017-10-12T00:26:56.621Z,9.90
2017-10-12T00:29:23.005Z,9.90
2017-10-12T00:31:49.395Z,9.80
2017-10-12T00:34:15.814Z,9.80
2017-10-12T00:36:43.308Z,9.70
2017-10-12T00:39:09.768Z,9.70
2017-10-12T00:41:36.171Z,9.70
2017-10-12T00:44:03.387Z,9.50
2017-10-12T00:46:29.779Z,9.50
2017-10-12T00:48:56.212Z,9.60
2017-10-12T00:51:22.647Z,9.60
2017-10-12T00:53:49.071Z,9.60
2017-10-12T00:56:15.447Z,9.50
2017-10-12T00:58:42.707Z,9.40
2017-10-12T01:01:09.144Z,9.40
2017-10-12T01:03:35.579Z,9.30
2017-10-12T01:06:02.010Z,9.30
2017-10-12T01:08:29.147Z,9.20
2017-10-12T01:10:56.312Z,9.10
2017-10-12T01:13:22.735Z,9.10
2017-10-12T01:15:49.197Z,9.20
2017-10-12T01:18:15.620Z,9.30
2017-10-12T01:20:42.071Z,9.40
2017-10-12T01:23:08.482Z,9.50
2017-10-12T01:25:34.926Z,9.50
2017-10-12T01:28:01.351Z,9.50
2017-10-12T01:30:27.811Z,9.60
2017-10-12T01:32:54.298Z,9.60
2017-10-12T01:35:20.751Z,9.70
2017-10-12T01:37:47.139Z,9.70
2017-10-12T01:40:13.590Z,9.70
2017-10-12T01:42:40.047Z,9.60
2017-10-12T01:45:06.512Z,9.60
2017-10-12T01:47:32.943Z,9.50
2017-10-12T01:49:59.363Z,9.40
2017-10-12T01:52:26.532Z,9.30
2017-10-12T01:54:53.047Z,9.30
2017-10-12T01:57:19.464Z,9.30
2017-10-12T01:59:45.895Z,9.40
2017-10-12T02:02:12.304Z,9.50
2017-10-12T02:04:38.731Z,9.60
2017-10-12T02:07:05.135Z,9.60
2017-10-12T02:09:31.551Z,9.60
2017-10-12T02:11:57.999Z,9.70
2017-10-12T02:14:24.459Z,9.80
2017-10-12T02:16:50.907Z,9.80
2017-10-12T02:19:17.327Z,9.80
2017-10-12T02:21:43.776Z,9.80
2017-10-12T02:24:10.970Z,9.80
2017-10-12T02:26:37.337Z,9.80
2017-10-12T02:29:04.546Z,9.60
2017-10-12T02:31:31.027Z,9.60
2017-10-12T02:33:57.428Z,9.70
2017-10-12T02:36:23.811Z,9.60
2017-10-12T02:38:50.204Z,9.60
2017-10-12T02:41:17.596Z,9.70
2017-10-12T02:43:44.062Z,9.80
2017-10-12T02:46:11.247Z,9.80
2017-10-12T02:48:37.664Z,9.80
2017-10-12T02:51:04.100Z,9.90
2017-10-12T02:53:30.531Z,9.90
2017-10-12T02:55:56.909Z,9.90
2017-10-12T02:58:23.307Z,9.90
2017-10-12T03:00:49.750Z,10.00
2017-10-12T03:03:16.220Z,10.00
2017-10-12T03:05:43.352Z,10.00
2017-10-12T03:08:09.783Z,10.00
2017-10-12T03:10:36.927Z,10.10
2017-10-12T03:13:03.409Z,10.00
2017-10-12T03:15:29.791Z,10.10
2017-10-12T03:17:56.243Z,10.10
2017-10-12T03:20:22.679Z,10.20
2017-10-12T03:22:49.908Z,10.30
2017-10-12T03:25:17.137Z,10.30
2017-10-12T03:27:43.560Z,10.20
2017-10-12T03:30:09.999Z,10.30
2017-10-12T03:32:36.415Z,10.30
2017-10-12T03:35:03.531Z,10.30
2017-10-12T03:37:29.952Z,10.30
2017-10-12T03:39:56.340Z,10.40
2017-10-12T03:42:22.791Z,10.40
2017-10-12T03:44:49.215Z,10.40
2017-10-12T03:47:15.608Z,10.50
2017-10-12T03:49:42.799Z,10.50
2017-10-12T03:52:09.267Z,10.50
2017-10-12T03:54:35.687Z,10.50
2017-10-12T03:57:02.075Z,10.60
2017-10-12T03:59:29.200Z,10.60
2017-10-12T04:01:55.578Z,10.60
2017-10-12T04:04:22.019Z,10.60
2017-10-12T04:06:48.435Z,10.70
2017-10-12T04:09:14.827Z,10.70
2017-10-12T04:11:41.187Z,10.70
2017-10-12T04:14:08.292Z,10.60
2017-10-12T04:16:34.679Z,10.60
2017-10-12T04:19:01.106Z,10.60
2017-10-12T04:21:28.575Z,10.60
2017-10-12T04:23:54.991Z,10.60
2017-10-12T04:26:21.388Z,10.60
2017-10-12T04:28:47.829Z,10.60
2017-10-12T04:31:14.251Z,10.60
2017-10-12T04:33:41.423Z,10.60
2017-10-12T04:36:07.771Z,10.60
2017-10-12T04:38:34.163Z,10.60
2017-10-12T04:41:01.304Z,10.60
2017-10-12T04:43:27.671Z,10.60
2017-10-12T04:45:55.891Z,10.60
2017-10-12T04:48:22.380Z,10.60
2017-10-12T04:50:48.792Z,10.70
2017-10-12T04:53:15.197Z,10.70
2017-10-12T04:55:41.539Z,10.70
2017-10-12T04:58:07.933Z,10.70
2017-10-12T05:00:34.344Z,10.70
2017-10-12T05:03:00.746Z,10.70
2017-10-12T05:05:27.172Z,10.60
2017-10-12T05:07:53.561Z,10.60
2017-10-12T05:10:20.663Z,10.70
2017-10-12T05:12:47.083Z,10.70
2017-10-12T05:15:13.475Z,10.70
2017-10-12T05:17:39.846Z,10.80
2017-10-12T05:20:08.387Z,10.80
2017-10-12T05:22:34.767Z,10.80
2017-10-12T05:25:01.236Z,10.90
2017-10-12T05:27:28.336Z,11.00
2017-10-12T05:29:54.744Z,11.00
2017-10-12T05:32:21.162Z,11.10
2017-10-12T05:34:47.567Z,11.20
2017-10-12T05:37:13.971Z,11.40
2017-10-12T05:39:40.411Z,11.40
2017-10-12T05:42:06.809Z,11.50
2017-10-12T05:44:33.179Z,11.60
2017-10-12T05:46:59.578Z,11.50
2017-10-12T05:49:25.959Z,11.60
2017-10-12T05:51:52.348Z,11.60
2017-10-12T05:57:07.631Z,11.60
2017-10-12T05:59:33.922Z,11.70
2017-10-12T06:02:00.166Z,11.80
2017-10-12T06:04:26.426Z,11.80
2017-10-12T06:06:52.739Z,11.80
2017-10-12T06:09:19.002Z,11.80
2017-10-12T06:11:46.025Z,11.80
2017-10-12T06:14:12.318Z,11.80
2017-10-12T06:16:38.578Z,11.80
2017-10-12T06:19:04.935Z,11.90
2017-10-12T06:21:31.226Z,12.00
2017-10-12T06:23:57.536Z,12.00
2017-10-12T06:26:23.790Z,12.00
2017-10-12T06:28:50.091Z,12.10
2017-10-12T06:31:16.398Z,12.10
2017-10-12T06:33:42.657Z,12.20
2017-10-12T06:36:08.944Z,12.20
2017-10-12T06:38:35.265Z,12.20
2017-10-12T06:41:01.546Z,12.20
2017-10-12T06:43:27.846Z,12.20
2017-10-12T06:45:54.133Z,12.20
2017-10-12T06:48:20.470Z,12.20
2017-10-12T06:50:46.762Z,12.20
2017-10-12T06:53:13.065Z,12.20
2017-10-12T06:55:39.367Z,12.20
2017-10-12T06:58:06.366Z,12.30
2017-10-12T07:00:32.654Z,12.30
2017-10-12T07:02:58.936Z,12.40
2017-10-12T07:05:25.226Z,12.50
2017-10-12T07:07:51.529Z,12.50
2017-10-12T07:10:17.802Z,12.60
2017-10-12T07:12:44.091Z,12.70
2017-10-12T07:15:10.386Z,12.70
2017-10-12T07:17:36.686Z,12.70
2017-10-12T07:20:03.002Z,12.70
2017-10-12T07:22:29.258Z,12.80
2017-10-12T07:24:55.546Z,12.90
2017-10-12T07:27:21.831Z,13.00
2017-10-12T07:29:48.083Z,13.00
2017-10-12T07:32:14.398Z,13.00
2017-10-12T07:34:41.387Z,13.30
2017-10-12T07:37:08.422Z,13.40
2017-10-12T07:39:49.617Z,13.30
2017-10-12T07:42:16.634Z,13.50
2017-10-12T07:44:43.662Z,13.70
2017-10-12T07:47:09.943Z,13.70
2017-10-12T07:49:36.198Z,13.70
2017-10-12T07:52:03.233Z,13.80
2017-10-12T07:54:29.479Z,13.80
2017-10-12T07:56:55.776Z,13.90
2017-10-12T07:59:22.805Z,13.80
2017-10-12T08:01:49.842Z,13.80
2017-10-12T08:04:16.155Z,13.80
2017-10-12T08:06:42.478Z,13.80
2017-10-12T08:09:08.790Z,14.00
2017-10-12T08:11:35.074Z,14.20
2017-10-12T08:14:01.378Z,14.40
2017-10-12T08:16:27.654Z,14.40
2017-10-12T08:18:53.943Z,14.50
2017-10-12T08:21:20.990Z,14.70
2017-10-12T08:23:47.245Z,14.70
2017-10-12T08:26:13.534Z,14.90
2017-10-12T08:28:39.807Z,15.00
2017-10-12T08:31:06.090Z,15.20
2017-10-12T08:33:32.358Z,15.30
2017-10-12T08:35:58.614Z,15.50
2017-10-12T08:38:24.879Z,15.60
2017-10-12T08:40:51.158Z,15.80
2017-10-12T08:43:17.434Z,16.00
2017-10-12T08:45:43.717Z,16.70
2017-10-12T08:48:09.973Z,18.10
2017-10-12T08:50:36.258Z,17.80
2017-10-12T08:53:02.511Z,18.60
2017-10-12T08:55:29.787Z,17.60
2017-10-12T08:57:56.058Z,17.20
2017-10-12T09:00:22.335Z,17.20
2017-10-12T09:02:48.607Z,17.80
2017-10-12T09:05:18.890Z,17.30
2017-10-12T09:07:45.162Z,17.20
2017-10-12T09:10:11.494Z,17.00
2017-10-12T09:12:37.771Z,17.00
2017-10-12T09:15:04.081Z,16.80
2017-10-12T09:17:31.087Z,16.60
2017-10-12T09:19:57.350Z,16.50
2017-10-12T09:22:23.619Z,16.40
2017-10-12T09:24:50.638Z,16.40
2017-10-12T09:27:16.970Z,16.40
2017-10-12T09:29:45.026Z,16.40
2017-10-12T09:32:11.303Z,16.30
2017-10-12T09:34:37.610Z,16.50
2017-10-12T09:37:03.903Z,16.40
2017-10-12T09:39:30.242Z,16.40
2017-10-12T09:41:56.538Z,16.50
2017-10-12T09:44:22.879Z,16.70
2017-10-12T09:46:49.180Z,16.80
2017-10-12T09:49:15.484Z,16.80
2017-10-12T09:51:41.798Z,16.90
2017-10-12T09:54:08.102Z,17.00
2017-10-12T09:56:34.350Z,16.80
2017-10-12T09:59:00.697Z,16.70
2017-10-12T10:01:27.003Z,16.70
2017-10-12T10:03:54.066Z,16.40
2017-10-12T10:06:20.396Z,16.40
2017-10-12T10:08:46.706Z,16.40
2017-10-12T10:11:13.006Z,16.40
2017-10-12T10:13:39.282Z,16.30
2017-10-12T10:16:05.535Z,16.30
2017-10-12T10:18:31.834Z,16.50
2017-10-12T10:20:58.074Z,16.50
2017-10-12T10:23:24.386Z,16.70
2017-10-12T10:25:51.745Z,16.80
2017-10-12T10:28:18.035Z,17.00
2017-10-12T10:30:44.354Z,17.20
2017-10-12T10:33:10.663Z,17.00
2017-10-12T10:35:36.968Z,17.10
2017-10-12T10:38:04.000Z,17.20
2017-10-12T10:40:30.266Z,17.20
2017-10-12T10:42:56.543Z,17.30
2017-10-12T10:45:22.837Z,17.30
2017-10-12T10:47:49.855Z,17.50
2017-10-12T10:50:16.149Z,17.50
2017-10-12T10:52:42.415Z,17.50
2017-10-12T10:55:08.743Z,17.60
2017-10-12T10:57:35.007Z,17.60
2017-10-12T11:00:01.290Z,17.50
2017-10-12T11:02:28.299Z,17.40
2017-10-12T11:04:54.583Z,17.40
2017-10-12T11:07:21.614Z,17.70
2017-10-12T11:09:48.598Z,17.70
2017-10-12T11:12:14.887Z,17.70
2017-10-12T11:14:41.153Z,17.80
2017-10-12T11:17:07.410Z,17.80
2017-10-12T11:19:33.705Z,17.80
2017-10-12T11:21:59.962Z,17.90
2017-10-12T11:24:26.258Z,18.10
2017-10-12T11:26:52.516Z,18.30
2017-10-12T11:29:18.803Z,18.30
2017-10-12T11:31:45.070Z,18.30
2017-10-12T11:34:12.073Z,18.40
2017-10-12T11:36:39.106Z,18.40
2017-10-12T11:39:05.367Z,18.40
2017-10-12T11:41:31.657Z,18.30
2017-10-12T11:43:57.934Z,18.40
2017-10-12T11:46:24.186Z,18.50
2017-10-12T11:48:51.208Z,18.70
2017-10-12T11:51:17.474Z,18.60
2017-10-12T11:53:43.743Z,18.70
2017-10-12T11:56:10.022Z,18.80
2017-10-12T11:58:36.306Z,18.70
2017-10-12T12:01:02.584Z,18.70
2017-10-12T12:03:28.898Z,18.80
2017-10-12T12:05:55.943Z,18.80
2017-10-12T12:08:22.218Z,18.80
2017-10-12T12:10:49.230Z,18.50
2017-10-12T12:13:15.526Z,18.50
2017-10-12T12:15:41.785Z,18.30
2017-10-12T12:18:08.821Z,18.60
2017-10-12T12:20:35.074Z,18.60
2017-10-12T12:23:01.370Z,18.60
2017-10-12T12:25:27.698Z,18.60
2017-10-12T12:27:53.963Z,18.50
2017-10-12T12:30:20.219Z,18.50
2017-10-12T12:32:46.518Z,18.40
2017-10-12T12:35:12.762Z,18.40
2017-10-12T12:37:39.026Z,18.40
2017-10-12T12:40:05.334Z,18.50
2017-10-12T12:42:31.743Z,18.50
2017-10-12T12:44:57.998Z,18.50
2017-10-12T12:47:24.291Z,18.50
2017-10-12T12:49:51.294Z,18.70
2017-10-12T12:52:17.558Z,18.60
2017-10-12T12:54:43.878Z,18.60
2017-10-12T12:57:10.150Z,18.70
2017-10-12T12:59:36.422Z,18.90
2017-10-12T13:02:02.693Z,19.00
2017-10-12T13:04:29.702Z,18.90
2017-10-12T13:06:55.959Z,18.90
2017-10-12T13:09:22.227Z,18.80
2017-10-12T13:11:48.490Z,18.80
2017-10-12T13:14:14.738Z,18.80
2017-10-12T13:16:41.049Z,18.80
2017-10-12T13:19:07.319Z,18.80
2017-10-12T13:21:33.586Z,18.70
2017-10-12T13:23:59.890Z,18.80
2017-10-12T13:26:26.149Z,18.80
2017-10-12T13:28:53.198Z,18.90
2017-10-12T13:31:19.478Z,18.80
2017-10-12T13:33:45.738Z,18.80
2017-10-12T13:36:12.006Z,18.90
2017-10-12T13:38:39.406Z,18.90
2017-10-12T13:41:05.678Z,18.90
2017-10-12T13:43:32.687Z,18.80
2017-10-12T13:46:00.779Z,18.80
2017-10-12T13:48:27.075Z,18.70
2017-10-12T13:50:54.082Z,18.70
2017-10-12T13:53:20.367Z,18.60
2017-10-12T13:55:46.702Z,18.60
2017-10-12T13:58:12.962Z,18.60
2017-10-12T14:00:39.316Z,18.60
2017-10-12T14:03:05.577Z,18.50
2017-10-12T14:05:32.586Z,18.50
2017-10-12T14:07:59.639Z,18.40
2017-10-12T14:10:26.678Z,18.40
2017-10-12T14:12:52.949Z,18.40
2017-10-12T14:15:19.278Z,18.40
2017-10-12T14:17:45.530Z,18.50
2017-10-12T14:20:11.797Z,18.50
2017-10-12T14:22:38.830Z,18.40
2017-10-12T14:25:05.086Z,18.40
2017-10-12T14:27:31.330Z,18.40
2017-10-12T14:29:57.631Z,18.40
2017-10-12T14:32:23.905Z,18.40
2017-10-12T14:34:50.911Z,18.30
2017-10-12T14:37:17.910Z,18.20
2017-10-12T14:39:44.170Z,18.20
2017-10-12T14:42:10.474Z,18.30
2017-10-12T14:44:37.478Z,18.20
2017-10-12T14:47:04.502Z,18.10
2017-10-12T14:49:30.748Z,18.10
2017-10-12T14:51:57.786Z,18.00
2017-10-12T14:54:24.070Z,18.00
2017-10-12T14:56:50.322Z,18.00
2017-10-12T14:59:16.582Z,18.00
2017-10-12T15:01:42.860Z,17.90
2017-10-12T15:04:09.170Z,17.80
2017-10-12T15:06:35.462Z,17.90
2017-10-12T15:09:01.734Z,17.80
2017-10-12T15:11:28.027Z,17.80
2017-10-12T15:13:54.295Z,17.70
2017-10-12T15:16:20.551Z,17.70
2017-10-12T15:18:46.856Z,17.60
2017-10-12T15:21:13.863Z,17.70
2017-10-12T15:23:40.870Z,17.70
2017-10-12T15:26:07.146Z,17.70
2017-10-12T15:28:33.414Z,17.80
2017-10-12T15:30:59.663Z,17.70
2017-10-12T15:33:25.959Z,17.80
2017-10-12T15:35:52.982Z,17.80
2017-10-12T15:38:19.232Z,17.80
2017-10-12T15:40:45.529Z,17.80
2017-10-12T15:43:12.882Z,17.70
2017-10-12T15:45:39.151Z,17.70
2017-10-12T15:48:05.443Z,17.70
2017-10-12T15:50:31.711Z,17.70
2017-10-12T15:52:57.959Z,17.60
2017-10-12T15:55:24.984Z,17.50
2017-10-12T15:57:51.246Z,17.50
2017-10-12T16:00:18.270Z,17.30
2017-10-12T16:02:44.541Z,17.30
2017-10-12T16:05:10.828Z,17.30
2017-10-12T16:07:37.082Z,17.20
2017-10-12T16:10:03.359Z,17.00
2017-10-12T16:12:29.637Z,16.80
2017-10-12T16:14:55.886Z,16.70
2017-10-12T16:17:22.169Z,16.60
2017-10-12T16:19:48.463Z,16.50
2017-10-12T16:22:14.731Z,16.40
2017-10-12T16:24:41.000Z,16.30
2017-10-12T16:27:07.269Z,16.30
2017-10-12T16:29:33.514Z,16.10
2017-10-12T16:31:59.786Z,16.00
2017-10-12T16:34:26.075Z,16.00
2017-10-12T16:36:52.363Z,15.90
2017-10-12T16:39:18.698Z,15.80
2017-10-12T16:41:44.982Z,15.80
2017-10-12T16:44:11.280Z,15.70
2017-10-12T16:46:37.555Z,15.50
2017-10-12T16:49:03.973Z,15.50
2017-10-12T16:51:30.252Z,15.50
2017-10-12T16:53:56.535Z,15.40
2017-10-12T16:56:22.818Z,15.30
2017-10-12T16:58:49.125Z,15.20
2017-10-12T17:01:16.178Z,15.10
2017-10-12T17:03:42.490Z,15.00
2017-10-12T17:06:09.060Z,15.00
2017-10-12T17:08:36.341Z,14.90
2017-10-12T17:11:03.430Z,14.80
2017-10-12T17:13:30.247Z,14.70
2017-10-12T17:15:56.707Z,14.60
2017-10-12T17:18:23.218Z,14.50
2017-10-12T17:20:49.707Z,14.60
2017-10-12T17:23:16.525Z,14.50
2017-10-12T17:25:43.651Z,14.40
2017-10-12T17:28:10.878Z,14.40
2017-10-12T17:30:39.339Z,14.20
2017-10-12T17:33:07.261Z,14.20
2017-10-12T17:35:34.823Z,14.10
2017-10-12T17:38:02.562Z,14.10
2017-10-12T17:40:30.372Z,14.10
2017-10-12T17:42:58.365Z,14.10
2017-10-12T17:45:26.249Z,13.90
2017-10-12T17:47:54.014Z,13.90
2017-10-12T17:50:21.888Z,13.80
2017-10-12T17:52:49.768Z,13.90
2017-10-12T17:55:17.639Z,13.90
2017-10-12T17:57:45.557Z,13.90
2017-10-12T18:00:13.432Z,13.90
2017-10-12T18:02:41.333Z,13.90
2017-10-12T18:05:09.055Z,13.90
2017-10-12T18:07:37.061Z,13.90
2017-10-12T18:10:04.863Z,13.90
2017-10-12T18:12:32.815Z,13.90
2017-10-12T18:15:01.518Z,13.90
2017-10-12T18:17:29.283Z,13.90
2017-10-12T18:19:57.068Z,13.90
2017-10-12T18:22:25.025Z,13.90
2017-10-12T18:24:53.601Z,13.80
2017-10-12T18:27:22.182Z,13.80
2017-10-12T18:29:50.116Z,13.80
2017-10-12T18:32:17.878Z,13.90
2017-10-12T18:34:46.306Z,13.80
2017-10-12T18:37:15.325Z,13.70
2017-10-12T18:39:44.273Z,13.70
2017-10-12T18:42:12.323Z,13.70
2017-10-12T18:44:40.221Z,13.70
2017-10-12T18:47:08.148Z,13.60
2017-10-12T18:49:36.128Z,13.60
2017-10-12T18:52:05.069Z,13.50
2017-10-12T18:54:33.848Z,13.50
2017-10-12T18:57:02.415Z,13.30
2017-10-12T18:59:30.316Z,13.20
2017-10-12T19:01:58.290Z,13.20
2017-10-12T19:04:26.986Z,13.00
2017-10-12T19:06:55.622Z,12.90
2017-10-12T19:09:23.427Z,12.90
2017-10-12T19:11:51.422Z,12.90
2017-10-12T19:14:20.493Z,12.80
2017-10-12T19:16:50.030Z,12.70
2017-10-12T19:19:18.875Z,12.70
2017-10-12T19:21:47.858Z,12.70
2017-10-12T19:24:16.948Z,12.60
2017-10-12T19:26:46.058Z,12.50
2017-10-12T19:29:14.070Z,12.50
2017-10-12T19:31:44.049Z,12.40
2017-10-12T19:34:13.183Z,12.40
2017-10-12T19:36:41.992Z,12.40
2017-10-12T19:39:09.901Z,12.30
2017-10-12T19:41:38.482Z,12.20
2017-10-12T19:44:06.579Z,12.10
2017-10-12T19:46:34.875Z,12.10
2017-10-12T19:49:03.818Z,12.10
2017-10-12T19:51:32.504Z,12.10
2017-10-12T19:54:01.145Z,12.00
2017-10-12T19:56:28.964Z,11.90
2017-10-12T19:59:03.867Z,11.90
2017-10-12T20:01:25.819Z,11.80
2017-10-12T20:03:53.639Z,11.70
2017-10-12T20:06:21.707Z,11.60
2017-10-12T20:08:49.669Z,11.60
2017-10-12T20:11:18.638Z,11.50
2017-10-12T20:18:42.886Z,11.40
2017-10-12T20:21:10.914Z,11.30
2017-10-12T20:23:38.691Z,11.30
2017-10-12T20:26:06.473Z,11.30
2017-10-12T20:28:35.621Z,11.10
2017-10-12T20:31:05.153Z,11.20
2017-10-12T20:33:33.177Z,11.10
2017-10-12T20:36:01.663Z,11.00
2017-10-12T20:38:29.441Z,10.90
2017-10-12T20:40:57.310Z,10.90
2017-10-12T20:43:26.883Z,10.90
2017-10-12T20:45:54.766Z,10.90
2017-10-12T20:48:22.590Z,10.90
2017-10-12T20:50:53.223Z,10.80
2017-10-12T20:53:21.148Z,10.80
2017-10-12T20:55:50.511Z,10.70
2017-10-12T20:58:19.437Z,10.70
2017-10-12T21:00:47.886Z,10.70
2017-10-12T21:03:15.794Z,10.60
2017-10-12T21:05:44.836Z,10.50
2017-10-12T21:08:12.832Z,10.50
2017-10-12T21:10:40.688Z,10.50
2017-10-12T21:13:08.408Z,10.50
2017-10-12T21:15:36.446Z,10.50
2017-10-12T21:18:04.250Z,10.40
2017-10-12T21:20:32.210Z,10.40
2017-10-12T21:22:59.999Z,10.40
2017-10-12T21:25:27.776Z,10.40
2017-10-12T21:27:55.686Z,10.40
2017-10-12T21:30:24.166Z,10.30
2017-10-12T21:32:52.075Z,10.30
2017-10-12T21:35:20.049Z,10.30
2017-10-12T21:37:48.718Z,10.50
2017-10-12T21:40:17.886Z,10.40
2017-10-12T21:42:45.657Z,10.40
2017-10-12T21:45:13.299Z,10.30
2017-10-12T21:47:41.159Z,10.30
2017-10-12T21:50:09.689Z,10.30
2017-10-12T21:52:37.227Z,10.20
2017-10-12T21:55:04.674Z,10.30
2017-10-12T21:57:31.194Z,10.40
2017-10-12T21:59:57.647Z,10.50
2017-10-12T22:02:24.190Z,10.50
2017-10-12T22:04:50.584Z,10.40
2017-10-12T22:07:16.859Z,10.40
2017-10-12T22:09:43.283Z,10.40
2017-10-12T22:12:18.072Z,10.50
2017-10-12T22:14:44.381Z,10.60
2017-10-12T22:17:10.811Z,10.50
2017-10-12T22:19:37.114Z,10.50
2017-10-12T22:22:04.118Z,10.50
2017-10-12T22:24:31.158Z,10.60
2017-10-12T22:26:57.421Z,10.60
2017-10-12T22:29:23.686Z,10.60
2017-10-12T22:31:50.746Z,10.60
2017-10-12T22:34:17.022Z,10.50
2017-10-12T22:36:43.283Z,10.60
2017-10-12T22:39:09.602Z,10.60
2017-10-12T22:41:35.906Z,10.60
2017-10-12T22:44:02.200Z,10.50
2017-10-12T22:46:28.502Z,10.60
2017-10-12T22:48:54.754Z,10.60
2017-10-12T22:51:21.048Z,10.70
2017-10-12T22:53:47.330Z,10.70
2017-10-12T22:56:13.601Z,10.70
2017-10-12T22:58:39.887Z,10.70
2017-10-12T23:01:06.175Z,10.70
2017-10-12T23:03:32.442Z,10.80
2017-10-12T23:05:58.727Z,10.80
2017-10-12T23:08:24.994Z,10.70
2017-10-12T23:10:51.251Z,10.70
2017-10-12T23:13:18.251Z,10.60
2017-10-12T23:15:45.283Z,10.60
2017-10-12T23:18:11.570Z,10.60
2017-10-12T23:20:37.826Z,10.70
2017-10-12T23:23:04.095Z,10.60
2017-10-12T23:25:30.386Z,10.60
2017-10-12T23:27:56.650Z,10.70
2017-10-12T23:30:24.061Z,10.80
2017-10-12T23:32:51.083Z,10.80
2017-10-12T23:35:17.350Z,10.80
2017-10-12T23:37:44.375Z,10.90
2017-10-12T23:40:10.679Z,10.90
2017-10-12T23:42:36.938Z,10.90
2017-10-12T23:45:03.264Z,10.90
2017-10-12T23:47:29.531Z,10.80
2017-10-12T23:49:56.538Z,10.70
2017-10-12T23:52:22.822Z,10.70
2017-10-12T23:54:49.091Z,10.70
2017-10-12T23:57:15.359Z,10.70
2017-10-12T23:59:41.641Z,10.70
